sensor_id;sensor_type;location;lat;lon;timestamp;pressure;altitude;pressure_sealevel;temperature;humidity
58757;BME280;44527;47.460;19.016;2024-01-15T00:00:00;99131.38;;;-0.75;98.32
58757;BME280;44527;47.460;19.016;2024-01-15T00:03:11;99120.19;;;-0.74;98.90
58757;BME280;44527;47.460;19.016;2024-01-15T00:06:28;99117.94;;;-0.61;97.32
58757;BME280;44527;47.460;19.016;2024-01-15T00:09:37;99118.38;;;-0.94;97.63
58757;BME280;44527;47.460;19.016;2024-01-15T00:12:55;99109.87;;;-0.96;97.42
58757;BME280;44527;47.460;19.016;2024-01-15T00:16:04;99095.56;;;-1.25;99.73
58757;BME280;44527;47.460;19.016;2024-01-15T00:19:11;99095.69;;;-1.06;99.73
58757;BME280;44527;47.460;19.016;2024-01-15T00:22:16;99082.91;;;-0.65;97.40
58757;BME280;44527;47.460;19.016;2024-01-15T00:25:20;99070.69;;;-0.60;96.87
58757;BME280;44527;47.460;19.016;2024-01-15T00:28:26;99068.97;;;-0.61;97.04
58757;BME280;44527;47.460;19.016;2024-01-15T00:31:34;99060.03;;;-0.53;96.66
58757;BME280;44527;47.460;19.016;2024-01-15T00:34:46;99047.75;;;-0.26;94.98
58757;BME280;44527;47.460;19.016;2024-01-15T00:37:53;99047.47;;;-0.40;95.64
58757;BME280;44527;47.460;19.016;2024-01-15T00:41:03;99035.72;;;-0.45;95.37
58757;BME280;44527;47.460;19.016;2024-01-15T00:44:16;99042.19;;;-0.57;95.49
58757;BME280;44527;47.460;19.016;2024-01-15T00:47:22;99050.44;;;-0.70;95.05
58757;BME280;44527;47.460;19.016;2024-01-15T00:50:31;99047.44;;;-0.81;96.22
58757;BME280;44527;47.460;19.016;2024-01-15T00:53:38;99039.94;;;-0.65;95.34
58757;BME280;44527;47.460;19.016;2024-01-15T00:56:59;99045.03;;;-0.63;95.58
58757;BME280;44527;47.460;19.016;2024-01-15T01:00:06;99041.31;;;-0.36;94.02
58757;BME280;44527;47.460;19.016;2024-01-15T01:03:15;99051.34;;;-0.50;94.66
58757;BME280;44527;47.460;19.016;2024-01-15T01:06:26;99042.19;;;-0.57;95.24
58757;BME280;44527;47.460;19.016;2024-01-15T01:09:42;99030.28;;;-0.60;95.71
58757;BME280;44527;47.460;19.016;2024-01-15T01:12:52;99044.81;;;-0.59;96.43
58757;BME280;44527;47.460;19.016;2024-01-15T01:15:57;99037.16;;;-0.40;94.62
58757;BME280;44527;47.460;19.016;2024-01-15T01:19:01;99027.72;;;-0.39;94.68
58757;BME280;44527;47.460;19.016;2024-01-15T01:22:07;99024.91;;;-0.55;95.65
58757;BME280;44527;47.460;19.016;2024-01-15T01:25:18;99016.19;;;-0.51;96.43
58757;BME280;44527;47.460;19.016;2024-01-15T01:28:23;99003.47;;;-0.76;96.89
58757;BME280;44527;47.460;19.016;2024-01-15T01:31:42;99000.38;;;-0.84;98.24
58757;BME280;44527;47.460;19.016;2024-01-15T01:34:49;99000.66;;;-0.92;97.88
58757;BME280;44527;47.460;19.016;2024-01-15T01:37:58;98991.09;;;-0.88;97.93
58757;BME280;44527;47.460;19.016;2024-01-15T01:41:04;98992.81;;;-0.89;97.78
58757;BME280;44527;47.460;19.016;2024-01-15T01:44:16;98992.09;;;-0.93;98.02
58757;BME280;44527;47.460;19.016;2024-01-15T01:47:20;98985.94;;;-0.88;97.93
58757;BME280;44527;47.460;19.016;2024-01-15T01:50:26;98966.19;;;-0.88;96.96
58757;BME280;44527;47.460;19.016;2024-01-15T01:53:34;98972.72;;;-1.01;97.27
58757;BME280;44527;47.460;19.016;2024-01-15T01:56:43;98981.53;;;-1.07;97.10
58757;BME280;44527;47.460;19.016;2024-01-15T01:59:50;98962.88;;;-1.34;98.61
58757;BME280;44527;47.460;19.016;2024-01-15T02:02:59;98956.00;;;-1.33;99.05
58757;BME280;44527;47.460;19.016;2024-01-15T02:06:06;98965.69;;;-1.40;99.27
58757;BME280;44527;47.460;19.016;2024-01-15T02:09:11;98958.09;;;-1.65;100.00
58757;BME280;44527;47.460;19.016;2024-01-15T02:12:28;98950.25;;;-1.62;100.00
58757;BME280;44527;47.460;19.016;2024-01-15T02:15:37;98918.72;;;-1.67;100.00
58757;BME280;44527;47.460;19.016;2024-01-15T02:18:44;98932.88;;;-1.79;100.00
58757;BME280;44527;47.460;19.016;2024-01-15T02:21:47;98943.72;;;-1.93;100.00
58757;BME280;44527;47.460;19.016;2024-01-15T02:24:52;98938.28;;;-1.85;100.00
58757;BME280;44527;47.460;19.016;2024-01-15T02:27:55;98945.19;;;-1.87;100.00
58757;BME280;44527;47.460;19.016;2024-01-15T02:31:02;98926.00;;;-1.78;100.00
58757;BME280;44527;47.460;19.016;2024-01-15T02:34:05;98913.69;;;-1.70;100.00
58757;BME280;44527;47.460;19.016;2024-01-15T02:37:10;98910.56;;;-1.78;100.00
58757;BME280;44527;47.460;19.016;2024-01-15T02:40:13;98931.41;;;-1.63;100.00
58757;BME280;44527;47.460;19.016;2024-01-15T02:43:17;98918.25;;;-1.77;100.00
58757;BME280;44527;47.460;19.016;2024-01-15T02:46:24;98914.06;;;-1.79;100.00
58757;BME280;44527;47.460;19.016;2024-01-15T02:49:28;98903.44;;;-1.94;100.00
58757;BME280;44527;47.460;19.016;2024-01-15T02:52:31;98887.78;;;-2.10;100.00
58757;BME280;44527;47.460;19.016;2024-01-15T02:55:38;98906.28;;;-2.23;100.00
58757;BME280;44527;47.460;19.016;2024-01-15T02:58:42;98919.37;;;-2.29;100.00
58757;BME280;44527;47.460;19.016;2024-01-15T03:01:46;98916.69;;;-2.26;100.00
58757;BME280;44527;47.460;19.016;2024-01-15T03:04:51;98890.41;;;-2.11;100.00
58757;BME280;44527;47.460;19.016;2024-01-15T03:08:00;98883.81;;;-2.18;100.00
58757;BME280;44527;47.460;19.016;2024-01-15T03:11:10;98876.09;;;-2.18;100.00
58757;BME280;44527;47.460;19.016;2024-01-15T03:14:16;98862.28;;;-2.38;100.00
58757;BME280;44527;47.460;19.016;2024-01-15T03:17:21;98865.09;;;-2.45;100.00
58757;BME280;44527;47.460;19.016;2024-01-15T03:20:25;98865.91;;;-2.43;100.00
58757;BME280;44527;47.460;19.016;2024-01-15T03:23:28;98863.34;;;-2.43;100.00
58757;BME280;44527;47.460;19.016;2024-01-15T03:26:32;98862.41;;;-2.42;100.00
58757;BME280;44527;47.460;19.016;2024-01-15T03:29:39;98854.81;;;-2.45;100.00
58757;BME280;44527;47.460;19.016;2024-01-15T03:32:45;98848.59;;;-2.38;100.00
58757;BME280;44527;47.460;19.016;2024-01-15T03:35:51;98853.72;;;-2.62;100.00
58757;BME280;44527;47.460;19.016;2024-01-15T03:38:59;98855.47;;;-2.62;100.00
58757;BME280;44527;47.460;19.016;2024-01-15T03:42:07;98857.28;;;-2.42;100.00
58757;BME280;44527;47.460;19.016;2024-01-15T03:45:14;98884.03;;;-2.24;100.00
58757;BME280;44527;47.460;19.016;2024-01-15T03:48:20;98861.47;;;-2.16;100.00
58757;BME280;44527;47.460;19.016;2024-01-15T03:51:28;98881.59;;;-2.05;100.00
58757;BME280;44527;47.460;19.016;2024-01-15T03:54:31;98886.22;;;-2.14;100.00
58757;BME280;44527;47.460;19.016;2024-01-15T03:57:38;98882.25;;;-1.99;100.00
58757;BME280;44527;47.460;19.016;2024-01-15T04:00:43;98888.47;;;-1.82;100.00
58757;BME280;44527;47.460;19.016;2024-01-15T04:03:49;98876.44;;;-2.04;100.00
58757;BME280;44527;47.460;19.016;2024-01-15T04:06:55;98896.84;;;-2.23;100.00
58757;BME280;44527;47.460;19.016;2024-01-15T04:10:02;98880.97;;;-2.58;100.00
58757;BME280;44527;47.460;19.016;2024-01-15T04:13:06;98873.25;;;-2.81;100.00
58757;BME280;44527;47.460;19.016;2024-01-15T04:16:23;98853.13;;;-2.45;100.00
58757;BME280;44527;47.460;19.016;2024-01-15T04:19:26;98848.63;;;-2.63;100.00
58757;BME280;44527;47.460;19.016;2024-01-15T04:22:31;98838.47;;;-2.66;100.00
58757;BME280;44527;47.460;19.016;2024-01-15T04:25:37;98848.69;;;-2.65;100.00
58757;BME280;44527;47.460;19.016;2024-01-15T04:28:41;98840.16;;;-2.42;100.00
58757;BME280;44527;47.460;19.016;2024-01-15T04:31:52;98845.34;;;-2.43;100.00
58757;BME280;44527;47.460;19.016;2024-01-15T04:34:59;98840.31;;;-2.46;100.00
58757;BME280;44527;47.460;19.016;2024-01-15T04:38:02;98845.22;;;-2.64;100.00
58757;BME280;44527;47.460;19.016;2024-01-15T04:41:06;98837.47;;;-2.62;100.00
58757;BME280;44527;47.460;19.016;2024-01-15T04:44:09;98835.84;;;-2.65;100.00
58757;BME280;44527;47.460;19.016;2024-01-15T04:47:12;98832.91;;;-2.78;100.00
58757;BME280;44527;47.460;19.016;2024-01-15T04:50:15;98829.31;;;-2.73;100.00
58757;BME280;44527;47.460;19.016;2024-01-15T04:53:18;98826.00;;;-3.01;100.00
58757;BME280;44527;47.460;19.016;2024-01-15T04:56:21;98814.16;;;-3.05;100.00
58757;BME280;44527;47.460;19.016;2024-01-15T04:59:23;98833.09;;;-3.07;100.00
58757;BME280;44527;47.460;19.016;2024-01-15T05:02:25;98845.38;;;-2.92;100.00
58757;BME280;44527;47.460;19.016;2024-01-15T05:05:28;98832.50;;;-2.90;100.00
58757;BME280;44527;47.460;19.016;2024-01-15T05:08:30;98838.66;;;-2.71;100.00
58757;BME280;44527;47.460;19.016;2024-01-15T05:11:33;98831.53;;;-2.88;100.00
58757;BME280;44527;47.460;19.016;2024-01-15T05:14:35;98836.84;;;-2.92;100.00
58757;BME280;44527;47.460;19.016;2024-01-15T05:17:38;98837.53;;;-2.87;100.00
58757;BME280;44527;47.460;19.016;2024-01-15T05:20:41;98836.19;;;-2.74;100.00
58757;BME280;44527;47.460;19.016;2024-01-15T05:23:45;98842.66;;;-2.87;100.00
58757;BME280;44527;47.460;19.016;2024-01-15T05:26:47;98841.44;;;-2.77;100.00
58757;BME280;44527;47.460;19.016;2024-01-15T05:29:50;98830.25;;;-2.76;100.00
58757;BME280;44527;47.460;19.016;2024-01-15T05:32:52;98840.03;;;-2.86;100.00
58757;BME280;44527;47.460;19.016;2024-01-15T05:35:55;98846.56;;;-2.77;100.00
58757;BME280;44527;47.460;19.016;2024-01-15T05:38:57;98840.84;;;-2.85;100.00
58757;BME280;44527;47.460;19.016;2024-01-15T05:42:00;98835.06;;;-2.90;100.00
58757;BME280;44527;47.460;19.016;2024-01-15T05:45:03;98828.94;;;-2.86;100.00
58757;BME280;44527;47.460;19.016;2024-01-15T05:48:07;98842.03;;;-2.94;100.00
58757;BME280;44527;47.460;19.016;2024-01-15T05:51:10;98837.78;;;-2.95;100.00
58757;BME280;44527;47.460;19.016;2024-01-15T05:54:12;98842.81;;;-2.92;100.00
58757;BME280;44527;47.460;19.016;2024-01-15T05:57:16;98845.44;;;-2.93;100.00
58757;BME280;44527;47.460;19.016;2024-01-15T06:00:19;98839.12;;;-2.85;100.00
58757;BME280;44527;47.460;19.016;2024-01-15T06:03:22;98837.81;;;-2.71;100.00
58757;BME280;44527;47.460;19.016;2024-01-15T06:06:24;98837.53;;;-2.64;100.00
58757;BME280;44527;47.460;19.016;2024-01-15T06:09:27;98844.78;;;-2.51;100.00
58757;BME280;44527;47.460;19.016;2024-01-15T06:12:30;98830.84;;;-2.44;100.00
58757;BME280;44527;47.460;19.016;2024-01-15T06:15:35;98834.81;;;-2.59;100.00
58757;BME280;44527;47.460;19.016;2024-01-15T06:18:38;98839.72;;;-2.53;100.00
58757;BME280;44527;47.460;19.016;2024-01-15T06:21:41;98841.97;;;-2.45;100.00
58757;BME280;44527;47.460;19.016;2024-01-15T06:24:43;98849.91;;;-2.51;100.00
58757;BME280;44527;47.460;19.016;2024-01-15T06:27:46;98834.53;;;-2.75;98.94
58757;BME280;44527;47.460;19.016;2024-01-15T06:30:48;98843.06;;;-3.25;100.00
58757;BME280;44527;47.460;19.016;2024-01-15T06:33:51;98839.56;;;-3.22;100.00
58757;BME280;44527;47.460;19.016;2024-01-15T06:36:55;98838.81;;;-3.24;100.00
58757;BME280;44527;47.460;19.016;2024-01-15T06:39:59;98838.81;;;-3.24;100.00
58757;BME280;44527;47.460;19.016;2024-01-15T06:43:01;98845.13;;;-3.09;100.00
58757;BME280;44527;47.460;19.016;2024-01-15T06:46:04;98840.03;;;-2.86;100.00
58757;BME280;44527;47.460;19.016;2024-01-15T06:49:09;98850.47;;;-2.67;100.00
58757;BME280;44527;47.460;19.016;2024-01-15T06:52:12;98852.66;;;-2.56;100.00
58757;BME280;44527;47.460;19.016;2024-01-15T06:55:15;98855.81;;;-2.48;100.00
58757;BME280;44527;47.460;19.016;2024-01-15T06:58:18;98849.38;;;-2.60;100.00
58757;BME280;44527;47.460;19.016;2024-01-15T07:01:21;98854.22;;;-2.52;98.63
58757;BME280;44527;47.460;19.016;2024-01-15T07:04:24;98855.97;;;-2.52;98.21
58757;BME280;44527;47.460;19.016;2024-01-15T07:07:27;98858.25;;;-2.45;97.21
58757;BME280;44527;47.460;19.016;2024-01-15T07:10:32;98856.03;;;-2.54;98.45
58757;BME280;44527;47.460;19.016;2024-01-15T07:13:38;98862.41;;;-2.42;98.09
58757;BME280;44527;47.460;19.016;2024-01-15T07:16:42;98873.00;;;-2.26;97.68
58757;BME280;44527;47.460;19.016;2024-01-15T07:19:49;98858.91;;;-2.16;97.38
58757;BME280;44527;47.460;19.016;2024-01-15T07:22:55;98868.62;;;-2.02;97.95
58757;BME280;44527;47.460;19.016;2024-01-15T07:26:02;98864.13;;;-1.96;98.71
58757;BME280;44527;47.460;19.016;2024-01-15T07:29:26;98869.16;;;-1.93;99.10
58757;BME280;44527;47.460;19.016;2024-01-15T07:32:29;98873.81;;;-1.80;100.00
58757;BME280;44527;47.460;19.016;2024-01-15T07:35:34;98879.06;;;-1.83;99.39
58757;BME280;44527;47.460;19.016;2024-01-15T07:38:36;98882.09;;;-1.52;100.00
58757;BME280;44527;47.460;19.016;2024-01-15T07:41:40;98882.13;;;-1.31;100.00
58757;BME280;44527;47.460;19.016;2024-01-15T07:44:45;98887.47;;;-1.36;100.00
58757;BME280;44527;47.460;19.016;2024-01-15T07:47:48;98891.97;;;-1.21;100.00
58757;BME280;44527;47.460;19.016;2024-01-15T07:50:54;98879.87;;;-1.19;100.00
58757;BME280;44527;47.460;19.016;2024-01-15T07:54:00;98878.72;;;-1.11;100.00
58757;BME280;44527;47.460;19.016;2024-01-15T07:57:27;98872.75;;;-1.12;100.00
58757;BME280;44527;47.460;19.016;2024-01-15T08:00:33;98894.03;;;-1.08;100.00
58757;BME280;44527;47.460;19.016;2024-01-15T08:03:39;98885.94;;;-0.99;100.00
58757;BME280;44527;47.460;19.016;2024-01-15T08:06:42;98891.62;;;-0.91;100.00
58757;BME280;44527;47.460;19.016;2024-01-15T08:09:45;98884.06;;;-0.96;100.00
58757;BME280;44527;47.460;19.016;2024-01-15T08:12:54;98876.72;;;-0.84;100.00
58757;BME280;44527;47.460;19.016;2024-01-15T08:15:58;98884.31;;;-0.61;100.00
58757;BME280;44527;47.460;19.016;2024-01-15T09:17:58;98928.53;;;2.92;67.42
58757;BME280;44527;47.460;19.016;2024-01-15T09:33:19;98888.00;;;3.50;66.11
58757;BME280;44527;47.460;19.016;2024-01-15T09:36:22;98871.97;;;3.43;64.44
58757;BME280;44527;47.460;19.016;2024-01-15T09:39:29;98891.44;;;3.64;64.73
58757;BME280;44527;47.460;19.016;2024-01-15T09:42:36;98892.88;;;3.54;62.34
58757;BME280;44527;47.460;19.016;2024-01-15T09:45:49;98882.25;;;3.59;62.02
58757;BME280;44527;47.460;19.016;2024-01-15T09:49:40;98877.59;;;3.78;62.33
58757;BME280;44527;47.460;19.016;2024-01-15T09:52:44;98874.91;;;3.80;61.32
58757;BME280;44527;47.460;19.016;2024-01-15T09:55:55;98864.59;;;3.92;59.34
58757;BME280;44527;47.460;19.016;2024-01-15T09:59:02;98857.66;;;3.93;59.20
58757;BME280;44527;47.460;19.016;2024-01-15T11:06:22;98800.97;;;4.67;55.27
58757;BME280;44527;47.460;19.016;2024-01-15T11:09:26;98810.00;;;4.74;54.50
58757;BME280;44527;47.460;19.016;2024-01-15T11:12:31;98804.09;;;4.72;55.59
58757;BME280;44527;47.460;19.016;2024-01-15T11:19:03;98803.22;;;4.58;56.29
58757;BME280;44527;47.460;19.016;2024-01-15T11:22:10;98800.34;;;4.76;55.28
58757;BME280;44527;47.460;19.016;2024-01-15T11:25:35;98787.66;;;4.71;55.39
58757;BME280;44527;47.460;19.016;2024-01-15T11:28:47;98794.81;;;4.68;56.21
58757;BME280;44527;47.460;19.016;2024-01-15T11:35:01;98795.91;;;4.78;55.34
58757;BME280;44527;47.460;19.016;2024-01-15T11:38:05;98789.22;;;4.74;55.96
58757;BME280;44527;47.460;19.016;2024-01-15T11:41:14;98769.78;;;4.92;55.64
58757;BME280;44527;47.460;19.016;2024-01-15T11:44:20;98770.62;;;5.18;55.77
58757;BME280;44527;47.460;19.016;2024-01-15T11:51:17;98773.81;;;5.35;54.84
58757;BME280;44527;47.460;19.016;2024-01-15T11:54:26;98775.91;;;5.17;54.56
58757;BME280;44527;47.460;19.016;2024-01-15T11:57:58;98760.09;;;5.20;54.84
58757;BME280;44527;47.460;19.016;2024-01-15T12:01:36;98751.66;;;5.29;54.93
58757;BME280;44527;47.460;19.016;2024-01-15T12:05:09;98738.84;;;5.26;53.75
58757;BME280;44527;47.460;19.016;2024-01-15T13:44:43;98724.75;;;4.92;54.31
58757;BME280;44527;47.460;19.016;2024-01-15T13:47:52;98725.38;;;4.82;55.02
58757;BME280;44527;47.460;19.016;2024-01-15T13:50:59;98731.41;;;4.83;54.72
58757;BME280;44527;47.460;19.016;2024-01-15T13:54:39;98727.38;;;4.79;54.66
58757;BME280;44527;47.460;19.016;2024-01-15T13:58:26;98718.75;;;4.66;55.11
58757;BME280;44527;47.460;19.016;2024-01-15T14:10:26;98717.88;;;4.40;56.27
58757;BME280;44527;47.460;19.016;2024-01-15T14:14:49;98714.47;;;4.39;56.22
58757;BME280;44527;47.460;19.016;2024-01-15T14:18:31;98707.28;;;4.30;56.94
58757;BME280;44527;47.460;19.016;2024-01-15T14:21:37;98719.84;;;4.23;57.04
58757;BME280;44527;47.460;19.016;2024-01-15T14:24:41;98725.47;;;4.30;57.26
58757;BME280;44527;47.460;19.016;2024-01-15T14:27:44;98728.81;;;4.32;57.55
58757;BME280;44527;47.460;19.016;2024-01-15T14:30:50;98732.50;;;4.28;57.42
58757;BME280;44527;47.460;19.016;2024-01-15T14:33:55;98725.53;;;4.28;57.34
58757;BME280;44527;47.460;19.016;2024-01-15T14:37:32;98717.88;;;4.27;57.55
58757;BME280;44527;47.460;19.016;2024-01-15T14:40:37;98724.03;;;4.38;57.36
58757;BME280;44527;47.460;19.016;2024-01-15T14:43:41;98718.81;;;4.38;57.17
58757;BME280;44527;47.460;19.016;2024-01-15T14:46:43;98730.25;;;4.36;57.36
58757;BME280;44527;47.460;19.016;2024-01-15T14:49:46;98734.09;;;4.30;56.69
58757;BME280;44527;47.460;19.016;2024-01-15T14:52:48;98741.44;;;4.24;56.95
58757;BME280;44527;47.460;19.016;2024-01-15T14:55:51;98735.81;;;4.17;56.96
58757;BME280;44527;47.460;19.016;2024-01-15T14:58:53;98739.88;;;4.21;57.25
58757;BME280;44527;47.460;19.016;2024-01-15T15:01:56;98736.13;;;4.25;57.47
58757;BME280;44527;47.460;19.016;2024-01-15T15:04:59;98733.63;;;4.11;57.68
58757;BME280;44527;47.460;19.016;2024-01-15T15:08:02;98732.06;;;4.08;57.83
58757;BME280;44527;47.460;19.016;2024-01-15T15:11:10;98730.22;;;4.10;57.68
58757;BME280;44527;47.460;19.016;2024-01-15T15:14:13;98733.41;;;4.01;58.67
58757;BME280;44527;47.460;19.016;2024-01-15T15:17:15;98726.53;;;4.00;57.63
58757;BME280;44527;47.460;19.016;2024-01-15T15:20:18;98723.09;;;4.00;57.66
58757;BME280;44527;47.460;19.016;2024-01-15T15:23:21;98726.91;;;3.94;58.25
58757;BME280;44527;47.460;19.016;2024-01-15T15:26:24;98716.53;;;3.94;58.03
58757;BME280;44527;47.460;19.016;2024-01-15T15:29:26;98727.63;;;3.83;58.13
58757;BME280;44527;47.460;19.016;2024-01-15T15:32:30;98721.66;;;3.96;58.47
58757;BME280;44527;47.460;19.016;2024-01-15T15:35:33;98726.06;;;3.81;58.62
58757;BME280;44527;47.460;19.016;2024-01-15T15:38:35;98725.31;;;3.79;58.27
58757;BME280;44527;47.460;19.016;2024-01-15T15:41:38;98716.06;;;3.75;59.81
58757;BME280;44527;47.460;19.016;2024-01-15T15:44:41;98714.69;;;3.69;58.80
58757;BME280;44527;47.460;19.016;2024-01-15T15:47:48;98719.81;;;3.71;59.22
58757;BME280;44527;47.460;19.016;2024-01-15T15:50:51;98715.81;;;3.65;59.04
58757;BME280;44527;47.460;19.016;2024-01-15T15:53:54;98731.84;;;3.72;58.39
58757;BME280;44527;47.460;19.016;2024-01-15T15:56:56;98725.84;;;3.57;58.86
58757;BME280;44527;47.460;19.016;2024-01-15T15:59:59;98730.25;;;3.69;59.16
58757;BME280;44527;47.460;19.016;2024-01-15T16:03:02;98743.44;;;3.66;58.82
58757;BME280;44527;47.460;19.016;2024-01-15T16:06:04;98751.97;;;3.68;59.51
58757;BME280;44527;47.460;19.016;2024-01-15T16:09:07;98763.34;;;3.80;59.01
58757;BME280;44527;47.460;19.016;2024-01-15T16:12:09;98766.84;;;3.79;57.92
58757;BME280;44527;47.460;19.016;2024-01-15T16:15:21;98761.56;;;3.80;58.23
58757;BME280;44527;47.460;19.016;2024-01-15T16:18:24;98760.31;;;3.59;59.42
58757;BME280;44527;47.460;19.016;2024-01-15T16:21:46;98764.69;;;3.58;58.89
58757;BME280;44527;47.460;19.016;2024-01-15T16:25:09;98765.53;;;3.44;59.50
58757;BME280;44527;47.460;19.016;2024-01-15T16:28:12;98769.38;;;3.52;59.91
58757;BME280;44527;47.460;19.016;2024-01-15T16:31:15;98768.88;;;3.47;59.17
58757;BME280;44527;47.460;19.016;2024-01-15T16:34:17;98765.34;;;3.48;59.17
58757;BME280;44527;47.460;19.016;2024-01-15T16:37:20;98769.19;;;3.55;58.94
58757;BME280;44527;47.460;19.016;2024-01-15T16:40:22;98778.94;;;3.51;58.81
58757;BME280;44527;47.460;19.016;2024-01-15T16:43:26;98791.19;;;3.49;58.72
58757;BME280;44527;47.460;19.016;2024-01-15T16:46:28;98788.09;;;3.57;58.26
58757;BME280;44527;47.460;19.016;2024-01-15T16:49:31;98803.03;;;3.53;58.60
58757;BME280;44527;47.460;19.016;2024-01-15T16:52:33;98807.84;;;3.59;58.84
58757;BME280;44527;47.460;19.016;2024-01-15T16:55:36;98808.69;;;3.45;59.69
58757;BME280;44527;47.460;19.016;2024-01-15T16:58:38;98807.47;;;3.51;59.48
58757;BME280;44527;47.460;19.016;2024-01-15T17:01:41;98826.09;;;3.58;59.11
58757;BME280;44527;47.460;19.016;2024-01-15T17:04:44;98814.81;;;3.44;59.30
58757;BME280;44527;47.460;19.016;2024-01-15T17:07:46;98817.59;;;3.41;59.60
58757;BME280;44527;47.460;19.016;2024-01-15T17:10:49;98805.37;;;3.43;59.60
58757;BME280;44527;47.460;19.016;2024-01-15T17:13:51;98816.50;;;3.31;60.11
58757;BME280;44527;47.460;19.016;2024-01-15T17:16:54;98816.94;;;3.23;60.34
58757;BME280;44527;47.460;19.016;2024-01-15T17:19:57;98807.75;;;3.18;60.40
58757;BME280;44527;47.460;19.016;2024-01-15T17:23:00;98806.59;;;3.09;60.67
58757;BME280;44527;47.460;19.016;2024-01-15T17:26:03;98803.22;;;3.07;60.29
58757;BME280;44527;47.460;19.016;2024-01-15T17:29:06;98799.25;;;3.02;60.47
58757;BME280;44527;47.460;19.016;2024-01-15T17:32:08;98803.22;;;3.07;60.34
58757;BME280;44527;47.460;19.016;2024-01-15T17:35:11;98801.94;;;3.00;60.70
58757;BME280;44527;47.460;19.016;2024-01-15T17:38:13;98806.84;;;3.05;60.13
58757;BME280;44527;47.460;19.016;2024-01-15T17:41:16;98798.31;;;3.03;60.20
58757;BME280;44527;47.460;19.016;2024-01-15T17:44:18;98794.81;;;3.04;60.42
58757;BME280;44527;47.460;19.016;2024-01-15T17:47:21;98793.06;;;3.04;60.54
58757;BME280;44527;47.460;19.016;2024-01-15T17:50:23;98783.06;;;2.98;61.03
58757;BME280;44527;47.460;19.016;2024-01-15T17:53:26;98791.44;;;2.87;60.72
58757;BME280;44527;47.460;19.016;2024-01-15T17:56:28;98788.97;;;2.86;61.16
58757;BME280;44527;47.460;19.016;2024-01-15T17:59:31;98804.97;;;2.92;60.44
58757;BME280;44527;47.460;19.016;2024-01-15T18:02:34;98796.09;;;2.96;60.34
58757;BME280;44527;47.460;19.016;2024-01-15T18:05:37;98800.25;;;2.99;60.37
58757;BME280;44527;47.460;19.016;2024-01-15T18:08:39;98800.19;;;3.01;60.24
58757;BME280;44527;47.460;19.016;2024-01-15T18:11:45;98798.22;;;3.04;60.32
58757;BME280;44527;47.460;19.016;2024-01-15T18:14:48;98815.91;;;2.97;60.43
58757;BME280;44527;47.460;19.016;2024-01-15T18:17:50;98828.22;;;2.94;60.62
58757;BME280;44527;47.460;19.016;2024-01-15T18:20:53;98842.37;;;3.03;60.53
58757;BME280;44527;47.460;19.016;2024-01-15T18:23:55;98837.00;;;3.06;60.57
58757;BME280;44527;47.460;19.016;2024-01-15T18:26:58;98800.06;;;3.02;60.64
58757;BME280;44527;47.460;19.016;2024-01-15T18:30:01;98795.00;;;3.01;60.83
58757;BME280;44527;47.460;19.016;2024-01-15T18:33:04;98811.19;;;3.04;60.86
58757;BME280;44527;47.460;19.016;2024-01-15T18:36:08;98835.06;;;2.95;61.07
58757;BME280;44527;47.460;19.016;2024-01-15T18:39:11;98852.38;;;2.94;61.43
58757;BME280;44527;47.460;19.016;2024-01-15T18:42:13;98851.63;;;2.92;61.95
58757;BME280;44527;47.460;19.016;2024-01-15T18:45:15;98859.22;;;2.95;61.62
58757;BME280;44527;47.460;19.016;2024-01-15T18:48:18;98865.16;;;2.97;61.56
58757;BME280;44527;47.460;19.016;2024-01-15T18:51:21;98880.97;;;2.93;62.20
58757;BME280;44527;47.460;19.016;2024-01-15T18:54:24;98877.06;;;2.86;62.43
58757;BME280;44527;47.460;19.016;2024-01-15T18:57:27;98877.31;;;2.81;62.49
58757;BME280;44527;47.460;19.016;2024-01-15T19:00:29;98876.94;;;2.73;63.08
58757;BME280;44527;47.460;19.016;2024-01-15T19:03:31;98872.41;;;2.76;63.29
58757;BME280;44527;47.460;19.016;2024-01-15T19:06:34;98894.06;;;2.75;63.29
58757;BME280;44527;47.460;19.016;2024-01-15T19:09:36;98888.31;;;2.70;63.48
58757;BME280;44527;47.460;19.016;2024-01-15T19:12:39;98882.78;;;2.76;64.37
58757;BME280;44527;47.460;19.016;2024-01-15T19:15:41;98854.34;;;2.75;64.66
58757;BME280;44527;47.460;19.016;2024-01-15T19:18:44;98849.81;;;2.64;63.99
58757;BME280;44527;47.460;19.016;2024-01-15T19:21:49;98867.44;;;2.58;64.20
58757;BME280;44527;47.460;19.016;2024-01-15T19:24:52;98889.31;;;2.68;64.46
58757;BME280;44527;47.460;19.016;2024-01-15T19:27:54;98896.25;;;2.67;64.73
58757;BME280;44527;47.460;19.016;2024-01-15T19:30:57;98891.84;;;2.69;64.51
58757;BME280;44527;47.460;19.016;2024-01-15T19:33:59;98887.47;;;2.70;64.54
58757;BME280;44527;47.460;19.016;2024-01-15T19:37:02;98873.63;;;2.55;64.65
58757;BME280;44527;47.460;19.016;2024-01-15T19:40:05;98858.94;;;2.56;64.39
58757;BME280;44527;47.460;19.016;2024-01-15T19:43:09;98856.34;;;2.56;64.58
58757;BME280;44527;47.460;19.016;2024-01-15T19:46:12;98866.59;;;2.57;64.92
58757;BME280;44527;47.460;19.016;2024-01-15T19:49:15;98879.50;;;2.43;65.46
58757;BME280;44527;47.460;19.016;2024-01-15T19:52:18;98876.44;;;2.36;66.11
58757;BME280;44527;47.460;19.016;2024-01-15T19:55:20;98875.91;;;2.45;65.77
58757;BME280;44527;47.460;19.016;2024-01-15T19:58:23;98863.34;;;2.53;65.25
58757;BME280;44527;47.460;19.016;2024-01-15T20:01:26;98878.47;;;2.61;64.86
58757;BME280;44527;47.460;19.016;2024-01-15T20:04:29;98875.47;;;2.53;65.32
58757;BME280;44527;47.460;19.016;2024-01-15T20:07:32;98883.34;;;2.51;65.33
58757;BME280;44527;47.460;19.016;2024-01-15T20:10:34;98881.16;;;2.44;65.61
58757;BME280;44527;47.460;19.016;2024-01-15T20:13:37;98896.97;;;2.39;65.66
58757;BME280;44527;47.460;19.016;2024-01-15T20:16:40;98906.13;;;2.45;65.68
58757;BME280;44527;47.460;19.016;2024-01-15T20:19:43;98912.50;;;2.39;66.10
58757;BME280;44527;47.460;19.016;2024-01-15T20:22:45;98918.44;;;2.25;66.70
58757;BME280;44527;47.460;19.016;2024-01-15T20:25:48;98930.97;;;2.33;66.59